Time;durP1;ratioP1;P1;durP2;ratioP2;P2;SDS_P1;SDS_P2;PMS_P1;PMS_P2;Temp;Humidity;BMP_temperature;BMP_pressure;BME280_temperature;BME280_humidity;BME280_pressure;Samples;Min_cycle;Max_cycle;Signal;HPM_P1;HPM_P2
2022/04/26 03:36:18;;;;;;;;;;;16.00;93.90;;;;;;5055019;28;19967;-74
2022/04/26 03:38:47;;;;;;;;;;;15.90;93.90;;;;;;5054017;28;19944;-73
2022/04/26 03:41:16;;;;;;;;;;;15.90;94.00;;;;;;5053016;28;19909;-74
2022/04/26 03:43:42;;;;;;;;;;;15.80;94.00;;;;;;5054308;28;20364;-74
2022/04/26 03:46:07;;;;;;;;;;;15.80;94.10;;;;;;5053590;28;19923;-74
2022/04/26 03:48:33;;;;;;;;;;;15.80;94.10;;;;;;5053351;28;19915;-73
2022/04/26 03:50:59;;;;;;;;;;;15.70;94.20;;;;;;5053276;28;20311;-74
2022/04/26 03:53:25;;;;;;;;;;;15.80;94.20;;;;;;5051419;28;20011;-74
2022/04/26 03:55:51;;;;;;;;;;;15.80;94.20;;;;;;5053488;28;20002;-74
2022/04/26 03:58:17;;;;;;;;;;;15.80;93.80;;;;;;5052201;28;20356;-74
2022/04/26 04:00:43;;;;;;;;;;;15.80;93.70;;;;;;5053322;28;20003;-73
2022/04/26 04:06:11;;;;;;;;;;;15.80;93.80;;;;;;5053483;28;20033;-74
2022/04/26 04:08:37;;;;;;;;;;;15.80;93.60;;;;;;5053648;28;20229;-74
2022/04/26 04:11:03;;;;;;;;;;;15.80;93.40;;;;;;5053308;28;19957;-73
2022/04/26 04:13:53;;;;;;;;;;;15.90;93.30;;;;;;5053462;28;19913;-73
2022/04/26 04:16:19;;;;;;;;;;;15.80;93.90;;;;;;5053048;28;19917;-72
2022/04/26 04:21:32;;;;;;;;;;;15.70;94.50;;;;;;5052459;28;19954;-71
2022/04/26 04:24:06;;;;;;;;;;;15.60;94.40;;;;;;5049906;28;19924;-73
2022/04/26 04:26:51;;;;;;;;;;;15.60;94.30;;;;;;5053881;28;19961;-74
2022/04/26 04:29:17;;;;;;;;;;;15.60;94.40;;;;;;5051959;28;19915;-72
2022/04/26 04:31:45;;;;;;;;;;;15.50;94.40;;;;;;5049235;28;19913;-72
2022/04/26 04:34:11;;;;;;;;;;;15.60;94.30;;;;;;5053442;28;20289;-74
2022/04/26 04:36:41;;;;;;;;;;;15.50;94.30;;;;;;5053492;28;19909;-72
2022/04/26 04:39:07;;;;;;;;;;;15.50;94.20;;;;;;5050031;28;20376;-72
2022/04/26 04:41:36;;;;;;;;;;;15.60;94.20;;;;;;5052579;28;19909;-75
2022/04/26 04:44:03;;;;;;;;;;;15.60;94.20;;;;;;5053709;28;20438;-77
2022/04/26 04:46:29;;;;;;;;;;;15.60;94.10;;;;;;5053973;28;20284;-76
2022/04/26 04:48:54;;;;;;;;;;;15.60;94.00;;;;;;5054595;28;19909;-76
2022/04/26 04:51:20;;;;;;;;;;;15.60;93.90;;;;;;5053612;28;19913;-76
2022/04/26 04:53:46;;;;;;;;;;;15.80;93.80;;;;;;5052113;28;20384;-77
2022/04/26 04:56:13;;;;;;;;;;;15.90;93.50;;;;;;5053888;28;20005;-77
2022/04/26 04:58:39;;;;;;;;;;;16.00;93.50;;;;;;5035619;28;20292;-76
2022/04/26 05:01:14;;;;;;;;;;;16.10;93.80;;;;;;5053570;28;19999;-76
2022/04/26 05:03:43;;;;;;;;;;;16.00;94.20;;;;;;5052230;28;19995;-77
2022/04/26 05:06:10;;;;;;;;;;;15.90;94.20;;;;;;5051037;28;20657;-77
2022/04/26 05:08:36;;;;;;;;;;;15.90;94.40;;;;;;5051063;28;20400;-76
2022/04/26 05:11:02;;;;;;;;;;;15.90;94.70;;;;;;5051698;28;19909;-78
2022/04/26 05:13:27;;;;;;;;;;;16.10;94.50;;;;;;5053559;28;20393;-77
2022/04/26 05:15:53;;;;;;;;;;;16.50;94.10;;;;;;5053125;28;19909;-77
2022/04/26 05:18:19;;;;;;;;;;;17.00;93.30;;;;;;5053264;28;19909;-77
2022/04/26 05:20:51;;;;;;;;;;;17.50;92.60;;;;;;5053879;28;19913;-77
2022/04/26 05:26:01;;;;;;;;;;;18.10;91.60;;;;;;5053718;28;20375;-75
2022/04/26 05:28:26;;;;;;;;;;;18.30;91.20;;;;;;5051803;28;19909;-77
2022/04/26 05:30:53;;;;;;;;;;;18.70;90.80;;;;;;5053190;28;19948;-77
2022/04/26 05:33:20;;;;;;;;;;;18.90;90.40;;;;;;5052317;28;19908;-77
2022/04/26 05:35:46;;;;;;;;;;;19.50;89.10;;;;;;5052824;28;20372;-78
2022/04/26 05:38:11;;;;;;;;;;;19.70;88.00;;;;;;5052888;28;19916;-77
2022/04/26 05:40:53;;;;;;;;;;;20.10;87.10;;;;;;5053081;28;19909;-77
2022/04/26 05:43:18;;;;;;;;;;;20.50;86.20;;;;;;5052795;28;19916;-77
2022/04/26 05:45:44;;;;;;;;;;;20.70;85.70;;;;;;5052329;28;19917;-77
2022/04/26 05:48:11;;;;;;;;;;;20.80;85.40;;;;;;5052241;28;19909;-76
2022/04/26 05:50:37;;;;;;;;;;;20.90;85.80;;;;;;5050677;28;19908;-77
2022/04/26 05:53:03;;;;;;;;;;;21.10;84.80;;;;;;5052731;28;20277;-75
2022/04/26 05:55:29;;;;;;;;;;;21.10;84.30;;;;;;5055817;28;19909;-75
2022/04/26 05:58:02;;;;;;;;;;;21.60;83.10;;;;;;5055568;28;19979;-75
2022/04/26 06:00:28;;;;;;;;;;;22.00;81.70;;;;;;5055277;28;19909;-75
2022/04/26 06:02:54;;;;;;;;;;;22.70;80.40;;;;;;5055065;28;19921;-74
2022/04/26 06:05:20;;;;;;;;;;;23.20;79.40;;;;;;5055459;28;19924;-74
2022/04/26 06:07:46;;;;;;;;;;;23.40;78.90;;;;;;5055627;28;20002;-70
2022/04/26 06:10:12;;;;;;;;;;;23.70;78.50;;;;;;5055047;28;19968;-71
2022/04/26 06:12:39;;;;;;;;;;;24.30;76.90;;;;;;5055214;28;19912;-73
2022/04/26 06:15:05;;;;;;;;;;;24.60;76.00;;;;;;5055672;28;20250;-72
2022/04/26 06:17:32;;;;;;;;;;;25.00;75.00;;;;;;5055747;28;19955;-73
2022/04/26 06:19:58;;;;;;;;;;;25.20;74.80;;;;;;5056038;28;20015;-72
2022/04/26 06:22:24;;;;;;;;;;;25.40;73.90;;;;;;5055848;28;20241;-73
2022/04/26 06:24:51;;;;;;;;;;;25.90;73.30;;;;;;5055655;28;19909;-72
2022/04/26 06:27:17;;;;;;;;;;;25.70;72.90;;;;;;5055889;28;19916;-74
2022/04/26 06:29:43;;;;;;;;;;;26.00;73.50;;;;;;5055421;28;19909;-73
2022/04/26 06:32:09;;;;;;;;;;;26.50;71.70;;;;;;5055955;28;19916;-69
2022/04/26 06:34:35;;;;;;;;;;;26.40;71.90;;;;;;5055308;28;19921;-69
2022/04/26 06:37:01;;;;;;;;;;;26.20;71.60;;;;;;5055856;28;19909;-71
2022/04/26 06:39:26;;;;;;;;;;;26.80;70.00;;;;;;5037876;28;19932;-72
2022/04/26 06:41:52;;;;;;;;;;;27.80;68.80;;;;;;5055744;28;20292;-73
2022/04/26 06:44:18;;;;;;;;;;;28.50;68.70;;;;;;5055587;28;20027;-72
2022/04/26 06:46:44;;;;;;;;;;;29.90;65.20;;;;;;5055432;28;19916;-74
2022/04/26 06:49:10;;;;;;;;;;;30.70;62.30;;;;;;5056155;28;19909;-74
2022/04/26 06:51:51;;;;;;;;;;;29.90;64.10;;;;;;5037100;28;19913;-73
2022/04/26 06:54:23;;;;;;;;;;;30.50;63.00;;;;;;5055144;28;19913;-74
2022/04/26 06:56:49;;;;;;;;;;;31.30;61.10;;;;;;5055737;28;20009;-73
2022/04/26 06:59:15;;;;;;;;;;;31.20;61.70;;;;;;5055600;28;19997;-73
2022/04/26 07:01:41;;;;;;;;;;;32.50;60.50;;;;;;5055106;28;19970;-73
2022/04/26 07:04:07;;;;;;;;;;;33.60;58.80;;;;;;5055045;28;19939;-72
2022/04/26 07:06:33;;;;;;;;;;;33.30;57.40;;;;;;5054977;28;20006;-73
2022/04/26 07:09:01;;;;;;;;;;;33.60;60.00;;;;;;5054439;28;19995;-72
2022/04/26 07:11:27;;;;;;;;;;;34.60;58.00;;;;;;5054967;28;20380;-72
2022/04/26 07:13:53;;;;;;;;;;;34.80;56.40;;;;;;5054968;28;19913;-74
2022/04/26 07:16:19;;;;;;;;;;;34.40;55.80;;;;;;5053291;28;20280;-73
2022/04/26 07:18:45;;;;;;;;;;;34.20;56.00;;;;;;5054806;28;20449;-73
2022/04/26 07:21:11;;;;;;;;;;;34.40;55.40;;;;;;5054937;28;20003;-72
2022/04/26 07:23:37;;;;;;;;;;;34.10;55.90;;;;;;5054786;28;19994;-74
2022/04/26 07:26:03;;;;;;;;;;;33.00;56.40;;;;;;5055239;28;19959;-74
2022/04/26 07:28:28;;;;;;;;;;;32.20;57.90;;;;;;5053459;28;20008;-74
2022/04/26 07:30:54;;;;;;;;;;;31.80;59.30;;;;;;5054671;28;19917;-74
2022/04/26 07:36:06;;;;;;;;;;;30.60;59.10;;;;;;5054890;28;19935;-73
2022/04/26 07:38:31;;;;;;;;;;;29.70;60.60;;;;;;5052853;28;19999;-73
2022/04/26 07:40:57;;;;;;;;;;;29.30;62.50;;;;;;5054248;28;20351;-74
2022/04/26 07:43:23;;;;;;;;;;;28.80;62.90;;;;;;5054356;28;19948;-74
2022/04/26 07:45:49;;;;;;;;;;;28.60;63.80;;;;;;5053459;28;20077;-74
2022/04/26 07:48:16;;;;;;;;;;;28.60;63.50;;;;;;5053310;28;19996;-71
2022/04/26 07:50:44;;;;;;;;;;;28.50;64.60;;;;;;5053483;28;20010;-73
2022/04/26 07:53:10;;;;;;;;;;;28.80;62.80;;;;;;5053057;28;19994;-74
2022/04/26 07:55:36;;;;;;;;;;;28.90;62.80;;;;;;5053451;28;20357;-73
2022/04/26 07:58:02;;;;;;;;;;;28.60;61.70;;;;;;5053018;28;20379;-75
2022/04/26 08:00:28;;;;;;;;;;;28.80;62.40;;;;;;5053351;28;19912;-73
2022/04/26 08:02:55;;;;;;;;;;;28.70;62.00;;;;;;5053136;28;19999;-73
2022/04/26 08:05:23;;;;;;;;;;;28.90;63.00;;;;;;5052758;28;20440;-74
2022/04/26 08:07:49;;;;;;;;;;;29.00;61.10;;;;;;5053025;28;19913;-73
2022/04/26 08:10:16;;;;;;;;;;;29.00;59.20;;;;;;5053393;28;19909;-73
2022/04/26 08:12:42;;;;;;;;;;;28.80;58.70;;;;;;5052088;28;19965;-73
2022/04/26 08:15:10;;;;;;;;;;;28.80;58.90;;;;;;5050812;28;20015;-77
2022/04/26 08:17:36;;;;;;;;;;;28.40;58.60;;;;;;5051986;28;19931;-74
2022/04/26 08:20:03;;;;;;;;;;;28.30;60.10;;;;;;5052693;28;19919;-75
2022/04/26 08:22:30;;;;;;;;;;;28.20;59.30;;;;;;5052633;28;19967;-72
2022/04/26 08:27:40;;;;;;;;;;;28.20;58.70;;;;;;5054054;28;19986;-75
2022/04/26 08:30:07;;;;;;;;;;;28.00;60.20;;;;;;5051011;28;19999;-73
2022/04/26 08:32:40;;;;;;;;;;;27.80;58.90;;;;;;5052179;28;19917;-73
2022/04/26 08:35:07;;;;;;;;;;;27.50;59.10;;;;;;5052189;28;20352;-73
2022/04/26 08:37:36;;;;;;;;;;;27.00;60.50;;;;;;5052047;28;20007;-74
2022/04/26 08:40:05;;;;;;;;;;;26.80;60.20;;;;;;5051797;28;20418;-73
2022/04/26 08:42:58;;;;;;;;;;;27.20;60.70;;;;;;5051607;28;19916;-72
2022/04/26 08:45:24;;;;;;;;;;;27.30;59.50;;;;;;5049838;28;19959;-73
2022/04/26 08:53:23;;;;;;;;;;;27.30;59.90;;;;;;5052987;28;19915;-74
2022/04/26 08:55:50;;;;;;;;;;;27.50;60.60;;;;;;5052171;28;19937;-73
2022/04/26 08:58:18;;;;;;;;;;;27.70;59.80;;;;;;5051891;28;20024;-72
2022/04/26 09:01:03;;;;;;;;;;;27.40;59.70;;;;;;5052174;28;19978;-73
2022/04/26 09:03:33;;;;;;;;;;;27.40;59.90;;;;;;5051192;28;20332;-73
2022/04/26 09:06:04;;;;;;;;;;;27.20;60.00;;;;;;5052423;28;19923;-73
2022/04/26 09:08:30;;;;;;;;;;;26.90;60.70;;;;;;5052442;28;20011;-73
2022/04/26 09:10:55;;;;;;;;;;;26.60;60.00;;;;;;5051964;28;19909;-71
2022/04/26 09:13:23;;;;;;;;;;;26.60;60.00;;;;;;5051998;28;19956;-72
2022/04/26 09:15:49;;;;;;;;;;;26.40;60.40;;;;;;5051907;28;19908;-72
2022/04/26 09:18:20;;;;;;;;;;;26.30;61.00;;;;;;5051784;28;19909;-73
2022/04/26 09:20:48;;;;;;;;;;;26.30;61.40;;;;;;5052170;28;20047;-71
2022/04/26 09:23:15;;;;;;;;;;;26.30;61.60;;;;;;5052160;28;19908;-72
2022/04/26 09:25:41;;;;;;;;;;;26.50;61.70;;;;;;5052102;28;20253;-72
2022/04/26 09:28:08;;;;;;;;;;;26.30;61.10;;;;;;5050677;28;20275;-72
2022/04/26 09:30:35;;;;;;;;;;;25.80;60.90;;;;;;5052433;28;19908;-73
2022/04/26 09:33:01;;;;;;;;;;;25.50;61.40;;;;;;5052338;28;19944;-73
2022/04/26 09:35:32;;;;;;;;;;;25.20;63.20;;;;;;5052133;28;19964;-69
2022/04/26 09:38:22;;;;;;;;;;;24.80;62.70;;;;;;5052249;28;19947;-73
2022/04/26 09:40:48;;;;;;;;;;;24.70;63.60;;;;;;5052855;28;19909;-72
2022/04/26 09:43:14;;;;;;;;;;;25.00;64.10;;;;;;5050931;28;20394;-72
2022/04/26 09:45:56;;;;;;;;;;;25.10;63.20;;;;;;5052681;28;20019;-73
2022/04/26 09:48:38;;;;;;;;;;;25.10;63.20;;;;;;5052230;28;19909;-74
2022/04/26 09:51:04;;;;;;;;;;;24.90;63.10;;;;;;5052165;28;19920;-74
2022/04/26 09:53:32;;;;;;;;;;;24.60;65.10;;;;;;5050567;28;20369;-71
2022/04/26 09:55:59;;;;;;;;;;;24.50;65.50;;;;;;5052116;28;19985;-74
2022/04/26 09:58:27;;;;;;;;;;;24.50;66.10;;;;;;5051861;28;19909;-73
2022/04/26 10:00:54;;;;;;;;;;;24.60;66.70;;;;;;5051910;28;20284;-73
2022/04/26 10:03:29;;;;;;;;;;;24.80;65.20;;;;;;5051544;28;19909;-75
2022/04/26 10:06:00;;;;;;;;;;;25.00;65.00;;;;;;5051510;28;19956;-73
2022/04/26 10:08:30;;;;;;;;;;;25.00;64.20;;;;;;5051627;28;19909;-74
2022/04/26 10:11:03;;;;;;;;;;;25.00;65.00;;;;;;5051077;28;20015;-71
2022/04/26 10:13:39;;;;;;;;;;;24.90;65.90;;;;;;5050869;28;19909;-74
2022/04/26 10:16:09;;;;;;;;;;;24.70;66.80;;;;;;5048818;28;19916;-74
2022/04/26 10:18:35;;;;;;;;;;;24.60;67.90;;;;;;5050414;28;20345;-73
2022/04/26 10:21:02;;;;;;;;;;;24.60;67.50;;;;;;5050107;28;20279;-74
2022/04/26 10:23:28;;;;;;;;;;;24.80;67.30;;;;;;5051185;28;19909;-75
2022/04/26 10:26:23;;;;;;;;;;;24.50;67.80;;;;;;5051619;28;19940;-73
2022/04/26 10:28:59;;;;;;;;;;;24.40;68.20;;;;;;5010506;28;19928;-72
2022/04/26 10:31:40;;;;;;;;;;;24.50;67.90;;;;;;5010517;28;19929;-72
2022/04/26 10:34:16;;;;;;;;;;;24.20;67.20;;;;;;5010229;28;19921;-75
2022/04/26 10:36:43;;;;;;;;;;;24.30;67.10;;;;;;5010120;28;19960;-74
2022/04/26 10:39:08;;;;;;;;;;;23.90;67.40;;;;;;5011195;28;19948;-73
2022/04/26 10:41:38;;;;;;;;;;;23.80;68.30;;;;;;5013652;28;20370;-73
2022/04/26 10:44:31;;;;;;;;;;;23.70;68.20;;;;;;5014068;28;20307;-74
2022/04/26 10:47:04;;;;;;;;;;;23.90;68.40;;;;;;5010507;28;19964;-72
2022/04/26 10:49:32;;;;;;;;;;;24.20;67.00;;;;;;4997357;28;19909;-77
2022/04/26 10:52:19;;;;;;;;;;;24.20;66.40;;;;;;4992979;28;19910;-70
2022/04/26 10:55:03;;;;;;;;;;;24.10;66.10;;;;;;4995254;28;19909;-75
2022/04/26 10:57:39;;;;;;;;;;;24.30;67.10;;;;;;5003294;28;19997;-72
2022/04/26 11:00:11;;;;;;;;;;;24.40;66.50;;;;;;4993092;28;20413;-73
2022/04/26 11:02:40;;;;;;;;;;;24.70;66.50;;;;;;4991625;28;19915;-71
2022/04/26 11:05:08;;;;;;;;;;;24.60;66.90;;;;;;5002355;28;19909;-73
2022/04/26 11:07:35;;;;;;;;;;;24.70;64.70;;;;;;5014485;28;20326;-74
2022/04/26 11:10:01;;;;;;;;;;;24.80;67.10;;;;;;5015485;28;20334;-74
2022/04/26 11:12:32;;;;;;;;;;;24.80;67.50;;;;;;5015024;28;19913;-72
2022/04/26 11:15:00;;;;;;;;;;;24.50;67.20;;;;;;5014929;28;19910;-73
2022/04/26 11:17:27;;;;;;;;;;;24.50;67.80;;;;;;5014760;28;19967;-73
2022/04/26 11:19:54;;;;;;;;;;;24.40;67.80;;;;;;5013173;28;19916;-73
2022/04/26 11:22:21;;;;;;;;;;;24.40;69.00;;;;;;5014622;28;19909;-73
2022/04/26 11:30:22;;;;;;;;;;;24.80;69.00;;;;;;5014491;28;19920;-72
2022/04/26 11:32:48;;;;;;;;;;;24.90;68.80;;;;;;5014629;28;19910;-73
2022/04/26 11:35:14;;;;;;;;;;;24.80;67.90;;;;;;5049600;28;19920;-73
2022/04/26 11:37:48;;;;;;;;;;;24.80;68.30;;;;;;5054470;28;19909;-72
2022/04/26 11:40:27;;;;;;;;;;;24.70;66.60;;;;;;5054950;28;19985;-75
2022/04/26 11:42:56;;;;;;;;;;;24.80;68.40;;;;;;5054650;28;20058;-73
2022/04/26 11:45:21;;;;;;;;;;;24.80;68.20;;;;;;5054453;28;19912;-72
2022/04/26 11:47:48;;;;;;;;;;;24.90;67.50;;;;;;5053919;28;19913;-72
2022/04/26 11:50:21;;;;;;;;;;;24.90;68.40;;;;;;5054316;28;19978;-72
2022/04/26 11:52:48;;;;;;;;;;;24.90;69.30;;;;;;5053662;28;19913;-71
2022/04/26 11:55:19;;;;;;;;;;;24.70;70.60;;;;;;5054005;28;19909;-72
2022/04/26 11:58:08;;;;;;;;;;;24.60;70.50;;;;;;5053312;28;19916;-71
2022/04/26 12:00:34;;;;;;;;;;;24.40;69.40;;;;;;5054140;28;19961;-72
2022/04/26 12:03:00;;;;;;;;;;;24.60;69.30;;;;;;5053792;28;19908;-72
2022/04/26 12:05:25;;;;;;;;;;;24.50;69.50;;;;;;5053863;28;19917;-72
2022/04/26 12:07:52;;;;;;;;;;;24.70;68.30;;;;;;5051935;28;19916;-72
2022/04/26 12:10:24;;;;;;;;;;;24.80;68.20;;;;;;5052640;28;19923;-71
2022/04/26 12:12:55;;;;;;;;;;;24.80;67.50;;;;;;5052347;28;19909;-72
2022/04/26 12:15:27;;;;;;;;;;;24.80;67.90;;;;;;5053551;28;20008;-72
2022/04/26 12:18:02;;;;;;;;;;;24.80;67.20;;;;;;5054384;28;19908;-72
2022/04/26 12:20:28;;;;;;;;;;;24.80;67.00;;;;;;5054046;28;19912;-72
2022/04/26 12:22:54;;;;;;;;;;;24.60;67.50;;;;;;5054445;28;19916;-73
2022/04/26 12:25:20;;;;;;;;;;;24.60;68.30;;;;;;5054574;28;19909;-71
2022/04/26 12:28:00;;;;;;;;;;;24.70;67.20;;;;;;5054105;28;19917;-72
2022/04/26 12:30:28;;;;;;;;;;;24.90;65.50;;;;;;5054441;28;19981;-72
2022/04/26 12:32:54;;;;;;;;;;;24.60;67.60;;;;;;5054136;28;19912;-73
2022/04/26 12:35:21;;;;;;;;;;;24.60;67.10;;;;;;5053732;28;19921;-72
2022/04/26 12:37:47;;;;;;;;;;;24.90;66.90;;;;;;5053971;28;19913;-72
2022/04/26 12:40:17;;;;;;;;;;;24.60;65.80;;;;;;5052912;28;20272;-72
2022/04/26 12:42:45;;;;;;;;;;;24.50;66.60;;;;;;5054007;28;19916;-72
2022/04/26 12:45:12;;;;;;;;;;;24.60;66.10;;;;;;5053664;28;19953;-72
2022/04/26 12:50:29;;;;;;;;;;;24.90;64.60;;;;;;5051569;28;20146;-71
2022/04/26 12:52:56;;;;;;;;;;;25.00;65.10;;;;;;5053297;28;19996;-72
2022/04/26 12:55:32;;;;;;;;;;;25.10;65.60;;;;;;5052187;28;19932;-71
2022/04/26 12:57:59;;;;;;;;;;;24.70;67.30;;;;;;5053299;28;19959;-72
2022/04/26 13:00:25;;;;;;;;;;;24.80;68.10;;;;;;5053331;28;19909;-72
2022/04/26 13:02:52;;;;;;;;;;;25.00;67.10;;;;;;5052901;28;19944;-70
2022/04/26 13:05:19;;;;;;;;;;;24.90;67.00;;;;;;5053519;28;19909;-73
2022/04/26 13:07:52;;;;;;;;;;;25.00;65.30;;;;;;5053028;28;20007;-72
2022/04/26 13:10:22;;;;;;;;;;;24.80;64.40;;;;;;5053102;28;19909;-72
2022/04/26 13:12:48;;;;;;;;;;;24.60;66.90;;;;;;5052949;28;19963;-71
2022/04/26 13:15:15;;;;;;;;;;;24.70;66.90;;;;;;5052940;28;20376;-70
2022/04/26 13:17:41;;;;;;;;;;;24.80;66.20;;;;;;5053599;28;19943;-72
2022/04/26 13:20:10;;;;;;;;;;;24.90;64.20;;;;;;5051881;28;19913;-71
2022/04/26 13:22:36;;;;;;;;;;;24.80;64.80;;;;;;5053235;28;19999;-72
2022/04/26 13:25:03;;;;;;;;;;;25.00;65.40;;;;;;5053354;28;20269;-72
2022/04/26 13:27:30;;;;;;;;;;;25.10;65.80;;;;;;5053165;28;19917;-72
2022/04/26 13:29:55;;;;;;;;;;;25.00;62.90;;;;;;5053494;28;19909;-71
2022/04/26 13:32:21;;;;;;;;;;;25.20;63.90;;;;;;5053816;28;19955;-72
2022/04/26 13:34:48;;;;;;;;;;;25.10;63.50;;;;;;5053117;28;19960;-72
2022/04/26 13:37:14;;;;;;;;;;;24.80;63.00;;;;;;5053894;28;19913;-71
2022/04/26 13:39:41;;;;;;;;;;;24.80;64.60;;;;;;5053112;28;20268;-72
2022/04/26 13:42:07;;;;;;;;;;;24.60;64.40;;;;;;5053739;28;19944;-72
2022/04/26 13:44:33;;;;;;;;;;;24.60;65.60;;;;;;5053059;28;19909;-72
2022/04/26 13:47:02;;;;;;;;;;;24.90;64.70;;;;;;5053044;28;19924;-73
2022/04/26 13:49:28;;;;;;;;;;;25.00;62.80;;;;;;5052328;28;20222;-72
2022/04/26 13:51:53;;;;;;;;;;;24.80;63.30;;;;;;5052855;28;19920;-73
2022/04/26 13:54:19;;;;;;;;;;;24.40;65.20;;;;;;5052317;28;19942;-73
2022/04/26 13:56:49;;;;;;;;;;;24.20;66.00;;;;;;5052605;28;19909;-73
2022/04/26 13:59:15;;;;;;;;;;;24.10;66.80;;;;;;5052149;28;19909;-72
2022/04/26 14:01:41;;;;;;;;;;;24.00;63.90;;;;;;5051686;28;19944;-72
2022/04/26 14:04:07;;;;;;;;;;;24.20;65.40;;;;;;5051821;28;19948;-72
2022/04/26 14:06:33;;;;;;;;;;;24.20;64.80;;;;;;5052326;28;19924;-73
2022/04/26 14:08:58;;;;;;;;;;;24.40;65.40;;;;;;5052276;28;20014;-73
2022/04/26 14:11:24;;;;;;;;;;;24.40;64.40;;;;;;5052432;28;19970;-73
2022/04/26 14:22:03;;;;;;;;;;;24.40;66.00;;;;;;5056262;28;19916;-73
2022/04/26 14:24:29;;;;;;;;;;;24.50;65.80;;;;;;5056291;28;19909;-71
2022/04/26 14:26:54;;;;;;;;;;;24.20;62.80;;;;;;5055687;28;19917;-72
2022/04/26 14:29:20;;;;;;;;;;;24.30;63.00;;;;;;5056477;28;19909;-72
2022/04/26 14:31:48;;;;;;;;;;;24.40;62.10;;;;;;5055439;28;19938;-72
2022/04/26 14:34:14;;;;;;;;;;;24.60;63.80;;;;;;5055481;28;19999;-73
2022/04/26 14:36:40;;;;;;;;;;;24.60;64.90;;;;;;5055582;28;19967;-73
2022/04/26 14:39:06;;;;;;;;;;;24.80;65.80;;;;;;5055519;28;19962;-73
2022/04/26 14:41:40;;;;;;;;;;;24.90;67.20;;;;;;5055980;28;19957;-73
2022/04/26 14:44:14;;;;;;;;;;;24.80;67.30;;;;;;5055446;28;19908;-73
2022/04/26 14:46:40;;;;;;;;;;;24.60;67.30;;;;;;5055208;28;19917;-72
2022/04/26 14:49:07;;;;;;;;;;;24.60;67.10;;;;;;5054717;28;19915;-73
2022/04/26 14:51:33;;;;;;;;;;;24.60;64.60;;;;;;5055058;28;19908;-73
2022/04/26 14:53:59;;;;;;;;;;;24.20;64.50;;;;;;5054842;28;19920;-70
2022/04/26 14:56:25;;;;;;;;;;;24.50;62.80;;;;;;5052983;28;19909;-72
2022/04/26 14:58:51;;;;;;;;;;;24.60;61.00;;;;;;5054547;28;19915;-73
2022/04/26 15:01:17;;;;;;;;;;;24.60;63.00;;;;;;5053799;28;19909;-74
2022/04/26 15:03:44;;;;;;;;;;;24.40;61.10;;;;;;5054167;28;19983;-72
2022/04/26 15:06:13;;;;;;;;;;;24.60;61.30;;;;;;5052576;28;20043;-71
2022/04/26 15:11:23;;;;;;;;;;;24.60;63.10;;;;;;5054845;28;19916;-72
2022/04/26 15:16:39;;;;;;;;;;;24.30;64.40;;;;;;5054034;28;20324;-72
2022/04/26 15:19:09;;;;;;;;;;;24.00;65.50;;;;;;5054127;28;20019;-72
2022/04/26 15:21:35;;;;;;;;;;;24.00;66.30;;;;;;5054477;28;19983;-71
2022/04/26 15:24:02;;;;;;;;;;;24.10;64.40;;;;;;5055068;28;19908;-72
2022/04/26 15:26:28;;;;;;;;;;;24.00;65.80;;;;;;5054967;28;20419;-72
2022/04/26 15:28:54;;;;;;;;;;;24.00;64.30;;;;;;5053810;28;19909;-72
2022/04/26 15:31:20;;;;;;;;;;;23.90;64.30;;;;;;5055176;28;20233;-72
2022/04/26 15:33:47;;;;;;;;;;;24.00;63.50;;;;;;5053023;28;19913;-71
2022/04/26 15:36:17;;;;;;;;;;;23.70;66.40;;;;;;5054740;28;19909;-72
2022/04/26 15:38:43;;;;;;;;;;;23.80;67.60;;;;;;5054216;28;19924;-72
2022/04/26 15:41:09;;;;;;;;;;;23.50;70.90;;;;;;5054039;28;19958;-71
2022/04/26 15:43:36;;;;;;;;;;;23.50;72.10;;;;;;5054544;28;19909;-72
2022/04/26 15:46:03;;;;;;;;;;;23.40;71.60;;;;;;5053878;28;19913;-72
2022/04/26 15:48:29;;;;;;;;;;;23.10;72.20;;;;;;5053880;28;19996;-72
2022/04/26 15:50:56;;;;;;;;;;;23.30;73.60;;;;;;5053370;28;19938;-73
2022/04/26 15:53:21;;;;;;;;;;;23.20;76.00;;;;;;5053815;28;19909;-72
2022/04/26 15:55:47;;;;;;;;;;;23.20;76.50;;;;;;5053858;28;19913;-73
2022/04/26 15:58:13;;;;;;;;;;;23.30;75.80;;;;;;5053826;28;20257;-73
2022/04/26 16:00:40;;;;;;;;;;;23.40;76.00;;;;;;5052702;28;19982;-73
2022/04/26 16:03:06;;;;;;;;;;;23.50;76.40;;;;;;5053813;28;19916;-72
2022/04/26 16:05:33;;;;;;;;;;;23.50;75.90;;;;;;5053616;28;19956;-71
2022/04/26 16:07:59;;;;;;;;;;;23.50;76.30;;;;;;5052447;28;19913;-72
2022/04/26 16:21:31;;;;;;;;;;;22.80;81.70;;;;;;5055089;28;19916;-73
2022/04/26 16:23:57;;;;;;;;;;;22.60;82.70;;;;;;5054329;28;19948;-73
2022/04/26 16:26:24;;;;;;;;;;;22.60;83.20;;;;;;5053130;28;19917;-73
2022/04/26 16:28:51;;;;;;;;;;;22.50;84.20;;;;;;5053853;28;19909;-73
2022/04/26 16:31:19;;;;;;;;;;;22.40;84.90;;;;;;5054124;28;19955;-71
2022/04/26 16:33:45;;;;;;;;;;;22.40;85.70;;;;;;5053823;28;19913;-72
2022/04/26 16:36:11;;;;;;;;;;;22.30;86.60;;;;;;5053774;28;19935;-72
2022/04/26 16:38:37;;;;;;;;;;;22.20;87.30;;;;;;5052526;28;19921;-73
2022/04/26 16:41:05;;;;;;;;;;;22.20;87.80;;;;;;5054484;28;19909;-73
2022/04/26 16:43:33;;;;;;;;;;;22.10;88.30;;;;;;5052535;28;19909;-72
2022/04/26 16:46:01;;;;;;;;;;;22.10;88.40;;;;;;5052168;28;19912;-73
2022/04/26 16:48:27;;;;;;;;;;;22.00;88.90;;;;;;5053836;28;19909;-72
2022/04/26 16:50:53;;;;;;;;;;;21.80;89.30;;;;;;5053074;28;19909;-73
2022/04/26 16:53:19;;;;;;;;;;;21.60;90.00;;;;;;5051756;28;19908;-74
2022/04/26 16:55:46;;;;;;;;;;;21.60;90.10;;;;;;5053074;28;20360;-68
2022/04/26 16:58:13;;;;;;;;;;;21.50;90.30;;;;;;5052612;28;19916;-72
2022/04/26 17:00:44;;;;;;;;;;;21.30;90.50;;;;;;5052386;28;20391;-70
2022/04/26 17:03:10;;;;;;;;;;;21.20;90.90;;;;;;5052643;28;20006;-70
2022/04/26 17:05:44;;;;;;;;;;;21.20;91.30;;;;;;5052400;28;19937;-72
2022/04/26 17:08:10;;;;;;;;;;;21.20;91.60;;;;;;5052611;28;19916;-72
2022/04/26 17:10:36;;;;;;;;;;;21.10;91.60;;;;;;5052720;28;19918;-72
2022/04/26 17:13:02;;;;;;;;;;;21.00;91.50;;;;;;5051025;28;19931;-71
2022/04/26 17:15:30;;;;;;;;;;;20.90;91.90;;;;;;5053409;28;20249;-72
2022/04/26 17:17:57;;;;;;;;;;;20.80;92.60;;;;;;5053334;28;20335;-72
2022/04/26 17:20:22;;;;;;;;;;;20.60;92.30;;;;;;5051572;28;20369;-68
2022/04/26 17:22:48;;;;;;;;;;;20.60;92.10;;;;;;5053192;28;19916;-70
2022/04/26 17:25:14;;;;;;;;;;;20.50;88.80;;;;;;5053429;28;19974;-72
2022/04/26 17:27:44;;;;;;;;;;;20.40;89.50;;;;;;5052702;28;20340;-71
2022/04/26 17:30:12;;;;;;;;;;;20.40;88.80;;;;;;5052829;28;19916;-71
2022/04/26 17:32:39;;;;;;;;;;;20.40;89.50;;;;;;5051702;28;20359;-72
2022/04/26 17:35:05;;;;;;;;;;;20.40;87.30;;;;;;5052840;28;19920;-73
2022/04/26 17:37:31;;;;;;;;;;;20.40;84.60;;;;;;5053537;28;19963;-74
2022/04/26 17:39:58;;;;;;;;;;;20.40;87.40;;;;;;5051612;28;19909;-72
2022/04/26 17:42:28;;;;;;;;;;;20.40;90.60;;;;;;5052940;28;19915;-72
2022/04/26 17:44:55;;;;;;;;;;;20.30;91.70;;;;;;5053014;28;19986;-69
2022/04/26 17:47:23;;;;;;;;;;;20.30;91.30;;;;;;5052946;28;20281;-69
2022/04/26 17:49:49;;;;;;;;;;;20.10;91.20;;;;;;5059372;28;19932;-70
2022/04/26 17:52:15;;;;;;;;;;;20.10;91.60;;;;;;5057396;28;20360;-72
2022/04/26 17:57:25;;;;;;;;;;;19.90;93.00;;;;;;5059535;28;19916;-71
2022/04/26 17:59:51;;;;;;;;;;;19.80;93.10;;;;;;5058978;28;19909;-73
2022/04/26 18:02:17;;;;;;;;;;;19.80;93.20;;;;;;5059176;28;20221;-73
2022/04/26 18:04:43;;;;;;;;;;;19.80;93.50;;;;;;5058327;28;19909;-72
2022/04/26 18:07:09;;;;;;;;;;;19.70;93.80;;;;;;5058592;28;19924;-72
2022/04/26 18:09:36;;;;;;;;;;;19.60;94.00;;;;;;5058680;28;19916;-68
2022/04/26 18:12:02;;;;;;;;;;;19.50;94.20;;;;;;5059164;28;19917;-68
2022/04/26 18:14:28;;;;;;;;;;;19.50;93.20;;;;;;5058980;28;20420;-69
2022/04/26 18:16:54;;;;;;;;;;;19.50;92.10;;;;;;5059549;28;20039;-67
2022/04/26 18:19:20;;;;;;;;;;;19.40;91.10;;;;;;5059193;28;19948;-70
2022/04/26 18:21:46;;;;;;;;;;;19.40;90.50;;;;;;5058032;28;20281;-71
2022/04/26 18:24:12;;;;;;;;;;;19.40;90.30;;;;;;5059121;28;19909;-72
2022/04/26 18:26:39;;;;;;;;;;;19.30;90.00;;;;;;5059082;28;20373;-72
2022/04/26 18:29:07;;;;;;;;;;;19.20;89.20;;;;;;5059107;28;19932;-72
2022/04/26 18:31:34;;;;;;;;;;;19.20;88.90;;;;;;5057745;28;19909;-73
2022/04/26 18:34:00;;;;;;;;;;;19.10;87.50;;;;;;5059133;28;19943;-73
2022/04/26 18:36:27;;;;;;;;;;;19.20;87.30;;;;;;5059363;28;20372;-72
2022/04/26 18:38:53;;;;;;;;;;;19.10;85.70;;;;;;5059041;28;19909;-71
2022/04/26 18:41:20;;;;;;;;;;;19.20;82.90;;;;;;5058893;28;19967;-70
2022/04/26 18:43:47;;;;;;;;;;;19.10;81.80;;;;;;5058935;28;19954;-71
2022/04/26 18:46:13;;;;;;;;;;;19.00;83.70;;;;;;5059402;28;19956;-72
2022/04/26 18:48:41;;;;;;;;;;;19.00;83.90;;;;;;5059010;28;19951;-71
2022/04/26 18:51:10;;;;;;;;;;;19.00;84.60;;;;;;5059064;28;19951;-72